Time;durP1;ratioP1;P1;durP2;ratioP2;P2;SDS_P1;SDS_P2;PMS_P1;PMS_P2;Temp;Humidity;BMP_temperature;BMP_pressure;BME280_temperature;BME280_humidity;BME280_pressure;Samples;Min_cycle;Max_cycle;Signal;HPM_P1;HPM_P2
2022/07/08 00:00:08;;;;;;;;;;;;;;;20.12;100.00;98630.56;5122450;28;20022;-61
2022/07/08 00:02:34;;;;;;;;;;;;;;;20.54;100.00;98634.72;5121357;28;20005;-60
2022/07/08 00:05:00;;;;;;;;;;;;;;;20.66;100.00;98634.94;5122524;28;19952;-61
2022/07/08 00:07:27;;;;;;;;;;;;;;;20.75;100.00;98639.31;5124107;28;19959;-60
2022/07/08 00:09:55;;;;;;;;;;;;;;;20.74;100.00;98637.69;5123096;28;19927;-61
2022/07/08 00:12:21;;;;;;;;;;;;;;;19.96;100.00;98646.38;5119989;28;19962;-62
2022/07/08 00:14:47;;;;;;;;;;;;;;;20.41;100.00;98639.91;5119932;28;19931;-60
2022/07/08 00:17:14;;;;;;;;;;;;;;;20.61;100.00;98641.28;5123192;28;19924;-61
2022/07/08 00:19:40;;;;;;;;;;;;;;;20.33;100.00;98653.41;5123022;28;19928;-62
2022/07/08 00:22:06;;;;;;;;;;;;;;;20.01;100.00;98651.69;5134334;27;19927;-60
2022/07/08 00:24:33;;;;;;;;;;;;;;;20.16;100.00;98659.47;5119803;28;19963;-61
2022/07/08 00:27:00;;;;;;;;;;;;;;;19.56;100.00;98656.19;5120495;28;19932;-61
2022/07/08 00:29:27;;;;;;;;;;;;;;;20.10;100.00;98663.41;5123120;28;19926;-62
2022/07/08 00:31:53;;;;;;;;;;;;;;;19.88;100.00;98666.09;5122852;28;19924;-61
2022/07/08 00:34:19;;;;;;;;;;;;;;;19.12;100.00;98664.94;5119762;28;19927;-61
2022/07/08 00:36:46;;;;;;;;;;;;;;;19.63;100.00;98664.72;5119443;28;19966;-61
2022/07/08 00:39:12;;;;;;;;;;;;;;;19.34;100.00;98666.94;5122565;28;19924;-62
2022/07/08 00:41:39;;;;;;;;;;;;;;;18.90;100.00;98672.91;5122967;28;19938;-61
2022/07/08 00:44:06;;;;;;;;;;;;;;;19.20;100.00;98666.13;5120828;28;19935;-61
2022/07/08 00:46:34;;;;;;;;;;;;;;;19.58;100.00;98678.38;5119398;28;19939;-61
2022/07/08 00:49:01;;;;;;;;;;;;;;;19.37;99.68;98677.94;5120777;28;20012;-61
2022/07/08 00:51:28;;;;;;;;;;;;;;;19.11;99.57;98679.56;5136309;27;19932;-61
2022/07/08 00:53:55;;;;;;;;;;;;;;;19.30;100.00;98679.47;5122415;28;19923;-61
2022/07/08 00:56:22;;;;;;;;;;;;;;;19.44;100.00;98680.28;5119537;28;19920;-61
2022/07/08 00:58:49;;;;;;;;;;;;;;;19.50;100.00;98683.69;5119300;28;19952;-61
2022/07/08 01:01:16;;;;;;;;;;;;;;;19.36;100.00;98691.81;5122509;28;19959;-61
2022/07/08 01:03:44;;;;;;;;;;;;;;;19.01;97.24;98687.84;5122633;28;19938;-61
2022/07/08 01:06:10;;;;;;;;;;;;;;;19.51;98.34;98693.44;5119840;28;19924;-60
2022/07/08 01:08:37;;;;;;;;;;;;;;;19.73;94.80;98691.63;5051706;28;1912721;-62
2022/07/08 01:11:03;;;;;;;;;;;;;;;19.74;95.04;98700.56;5121749;28;19982;-61
2022/07/08 01:13:30;;;;;;;;;;;;;;;19.02;92.65;98694.88;5123402;28;19919;-61
2022/07/08 01:15:56;;;;;;;;;;;;;;;19.17;96.13;98700.03;5122759;28;19923;-61
2022/07/08 01:18:26;;;;;;;;;;;;;;;19.07;97.40;98696.69;5119924;28;19924;-61
2022/07/08 01:20:54;;;;;;;;;;;;;;;19.47;94.62;98698.66;5126654;27;19919;-61
2022/07/08 01:23:20;;;;;;;;;;;;;;;19.36;93.09;98694.50;5123129;28;19924;-61
2022/07/08 01:25:47;;;;;;;;;;;;;;;18.76;92.18;98699.13;5123172;28;19930;-62
2022/07/08 01:28:13;;;;;;;;;;;;;;;19.07;93.11;98711.03;5119940;28;19924;-62
2022/07/08 01:30:40;;;;;;;;;;;;;;;18.37;97.10;98704.06;5119580;28;19924;-61
2022/07/08 01:33:06;;;;;;;;;;;;;;;19.08;94.40;98717.25;5121797;28;19931;-61
2022/07/08 01:35:33;;;;;;;;;;;;;;;18.94;91.01;98728.03;5123080;28;19974;-61
2022/07/08 01:38:00;;;;;;;;;;;;;;;19.52;91.11;98716.72;5121251;28;19950;-61
2022/07/08 01:40:27;;;;;;;;;;;;;;;19.12;89.36;98729.91;5119503;28;19924;-61
2022/07/08 01:42:53;;;;;;;;;;;;;;;19.52;89.47;98720.25;5119715;28;19960;-61
2022/07/08 01:45:20;;;;;;;;;;;;;;;19.75;87.84;98729.25;5123190;28;19930;-61
2022/07/08 01:47:46;;;;;;;;;;;;;;;19.75;86.72;98730.06;5122971;28;19928;-61
2022/07/08 01:50:13;;;;;;;;;;;;;;;19.76;86.20;98728.97;5122616;27;19924;-61
2022/07/08 01:52:39;;;;;;;;;;;;;;;19.85;86.22;98735.28;5129754;27;19928;-61
2022/07/08 01:55:08;;;;;;;;;;;;;;;19.40;86.70;98736.97;5121211;28;20000;-61
2022/07/08 01:57:34;;;;;;;;;;;;;;;19.57;87.26;98733.69;5122641;28;19983;-61
2022/07/08 02:00:01;;;;;;;;;;;;;;;19.03;87.69;98747.13;5121045;28;19934;-60
2022/07/08 02:02:27;;;;;;;;;;;;;;;19.10;89.97;98744.81;5118931;28;19924;-61
2022/07/08 02:04:54;;;;;;;;;;;;;;;19.42;88.67;98752.13;5119399;28;19987;-62
2022/07/08 02:07:20;;;;;;;;;;;;;;;19.37;87.21;98750.31;5122068;28;19987;-62
2022/07/08 02:09:47;;;;;;;;;;;;;;;19.19;86.50;98749.25;5122338;28;19992;-61
2022/07/08 02:12:19;;;;;;;;;;;;;;;18.95;88.38;98743.19;5119281;28;19951;-61
2022/07/08 02:14:46;;;;;;;;;;;;;;;19.36;88.39;98744.09;5118694;28;19935;-61
2022/07/08 02:17:12;;;;;;;;;;;;;;;19.21;88.00;98751.69;5121776;28;20495;-63
2022/07/08 02:19:39;;;;;;;;;;;;;;;19.38;86.97;98760.81;5122309;28;19930;-62
2022/07/08 02:22:06;;;;;;;;;;;;;;;18.66;88.82;98772.38;5133695;27;19935;-61
2022/07/08 02:24:32;;;;;;;;;;;;;;;18.98;90.37;98774.28;5118426;28;20034;-62
2022/07/08 02:26:58;;;;;;;;;;;;;;;19.13;88.84;98766.69;5119441;28;19936;-62
2022/07/08 02:29:26;;;;;;;;;;;;;;;19.13;87.34;98769.41;5122160;28;19931;-62
2022/07/08 02:31:52;;;;;;;;;;;;;;;19.48;85.94;98767.19;5121806;28;19987;-61
2022/07/08 02:34:19;;;;;;;;;;;;;;;19.07;86.04;98775.19;5118469;28;19927;-61
2022/07/08 02:36:45;;;;;;;;;;;;;;;18.78;88.38;98780.84;5118529;28;19931;-62
2022/07/08 02:39:12;;;;;;;;;;;;;;;18.99;88.78;98782.13;5121392;28;20850;-61
2022/07/08 02:41:39;;;;;;;;;;;;;;;19.19;87.49;98789.88;5121964;28;19934;-61
2022/07/08 02:44:05;;;;;;;;;;;;;;;19.55;85.56;98787.38;5119676;28;19934;-61
2022/07/08 02:46:33;;;;;;;;;;;;;;;19.76;83.73;98793.19;5118235;28;19931;-63
2022/07/08 02:48:59;;;;;;;;;;;;;;;19.88;82.83;98796.22;5119269;28;19924;-63
2022/07/08 02:51:26;;;;;;;;;;;;;;;19.93;82.38;98793.38;5135389;27;19927;-62
2022/07/08 02:53:52;;;;;;;;;;;;;;;19.92;81.69;98787.19;5121606;28;19987;-61
2022/07/08 02:56:18;;;;;;;;;;;;;;;19.91;81.85;98795.59;5118182;28;19959;-61
2022/07/08 02:58:45;;;;;;;;;;;;;;;19.90;82.09;98802.13;5118333;28;19959;-62
2022/07/08 03:01:11;;;;;;;;;;;;;;;19.96;81.92;98790.06;5121331;28;19996;-62
2022/07/08 03:03:39;;;;;;;;;;;;;;;20.00;81.87;98796.50;5121798;28;19966;-62
2022/07/08 03:06:05;;;;;;;;;;;;;;;19.94;82.51;98803.13;5119639;28;19932;-62
2022/07/08 03:08:32;;;;;;;;;;;;;;;19.94;82.38;98793.09;5118244;28;19932;-62
2022/07/08 03:10:58;;;;;;;;;;;;;;;19.88;83.78;98807.06;5119144;28;19920;-62
2022/07/08 03:13:24;;;;;;;;;;;;;;;19.32;88.68;98813.50;5121871;28;19951;-62
2022/07/08 03:15:51;;;;;;;;;;;;;;;19.51;87.21;98809.94;5121600;28;19924;-61
2022/07/08 03:18:17;;;;;;;;;;;;;;;19.69;86.01;98806.34;5109924;28;19931;-61
2022/07/08 03:20:45;;;;;;;;;;;;;;;19.80;85.25;98813.19;5121195;28;19923;-62
2022/07/08 03:23:11;;;;;;;;;;;;;;;19.53;87.27;98810.47;5122461;28;20038;-62
2022/07/08 03:25:37;;;;;;;;;;;;;;;19.68;86.59;98819.09;5121585;28;20437;-62
2022/07/08 03:28:04;;;;;;;;;;;;;;;19.52;87.10;98816.97;5119666;28;19974;-62
2022/07/08 03:30:31;;;;;;;;;;;;;;;19.27;88.19;98821.72;5118127;28;19920;-61
2022/07/08 03:32:57;;;;;;;;;;;;;;;19.51;87.30;98829.72;5118812;28;19991;-62
2022/07/08 03:35:24;;;;;;;;;;;;;;;19.27;89.70;98843.38;5121310;28;19958;-62
2022/07/08 03:37:51;;;;;;;;;;;;;;;19.27;89.73;98843.38;5121472;28;19924;-62
2022/07/08 03:43:02;;;;;;;;;;;;;;;19.10;90.82;98856.66;5109367;28;19928;-62
2022/07/08 03:45:28;;;;;;;;;;;;;;;19.28;89.43;98855.81;5109350;28;19963;-62
2022/07/08 03:47:56;;;;;;;;;;;;;;;19.17;89.99;98865.22;5109403;28;20341;-62
2022/07/08 03:50:22;;;;;;;;;;;;;;;18.82;92.66;98863.03;5114699;28;19947;-61
2022/07/08 03:52:49;;;;;;;;;;;;;;;19.01;92.02;98866.53;5125652;28;19931;-62
2022/07/08 03:55:16;;;;;;;;;;;;;;;18.77;92.70;98868.53;5121163;28;19946;-60
2022/07/08 03:57:43;;;;;;;;;;;;;;;18.69;94.15;98864.56;5121152;28;19924;-61
2022/07/08 04:00:09;;;;;;;;;;;;;;;18.20;96.07;98874.94;5118802;28;20006;-61
2022/07/08 04:02:36;;;;;;;;;;;;;;;17.81;98.98;98872.41;5120858;28;19931;-62
2022/07/08 04:05:02;;;;;;;;;;;;;;;18.45;94.78;98868.38;5122942;28;19983;-61
2022/07/08 04:07:28;;;;;;;;;;;;;;;18.94;91.77;98874.22;5124633;28;19923;-62
2022/07/08 04:09:55;;;;;;;;;;;;;;;19.18;89.79;98880.38;5124515;28;19924;-61
2022/07/08 04:12:22;;;;;;;;;;;;;;;19.33;87.87;98882.81;5121505;28;19924;-61
2022/07/08 04:14:49;;;;;;;;;;;;;;;18.91;90.03;98882.94;5121492;28;19924;-61
2022/07/08 04:17:15;;;;;;;;;;;;;;;19.27;87.98;98888.63;5124683;28;19951;-61
2022/07/08 04:19:41;;;;;;;;;;;;;;;19.52;85.99;98887.41;5124729;28;19927;-61
2022/07/08 04:22:08;;;;;;;;;;;;;;;19.06;87.52;98890.84;5136220;27;19934;-61
2022/07/08 04:24:35;;;;;;;;;;;;;;;18.85;90.05;98894.94;5121123;28;19932;-61
2022/07/08 04:27:01;;;;;;;;;;;;;;;19.14;87.80;98887.47;5122523;28;19924;-62
2022/07/08 04:29:29;;;;;;;;;;;;;;;19.21;87.23;98897.91;5124553;28;19923;-61
2022/07/08 04:31:55;;;;;;;;;;;;;;;19.19;87.46;98892.78;5123853;28;19999;-62
2022/07/08 04:34:22;;;;;;;;;;;;;;;18.63;89.84;98892.00;5120761;28;19924;-61
2022/07/08 04:36:49;;;;;;;;;;;;;;;18.99;89.42;98892.31;5120943;28;19924;-62
2022/07/08 04:39:15;;;;;;;;;;;;;;;19.09;87.43;98890.25;5124051;28;20501;-61
2022/07/08 04:41:42;;;;;;;;;;;;;;;19.43;85.53;98889.19;5124245;28;19935;-61
2022/07/08 04:44:08;;;;;;;;;;;;;;;19.52;84.58;98898.25;5121705;28;19983;-61
2022/07/08 04:46:36;;;;;;;;;;;;;;;19.23;84.75;98909.25;5120532;28;20450;-62
2022/07/08 04:49:02;;;;;;;;;;;;;;;18.75;87.44;98911.34;5121892;28;19941;-61
2022/07/08 04:51:28;;;;;;;;;;;;;;;18.78;88.62;98910.75;5137672;27;19928;-61
2022/07/08 04:53:55;;;;;;;;;;;;;;;18.50;90.72;98909.75;5123518;28;19924;-61
2022/07/08 04:56:21;;;;;;;;;;;;;;;18.74;89.38;98915.94;5120428;28;19931;-61
2022/07/08 04:58:48;;;;;;;;;;;;;;;18.66;89.91;98918.50;5120240;28;19925;-61
2022/07/08 05:01:17;;;;;;;;;;;;;;;19.05;86.75;98915.50;5105281;28;19970;-61
2022/07/08 05:03:46;;;;;;;;;;;;;;;19.30;86.37;98915.09;5123852;28;19923;-61
2022/07/08 05:06:12;;;;;;;;;;;;;;;19.33;85.77;98912.63;5120938;28;19979;-62
2022/07/08 05:08:38;;;;;;;;;;;;;;;19.35;85.06;98921.25;5119976;28;19959;-61
2022/07/08 05:11:05;;;;;;;;;;;;;;;19.42;83.93;98926.31;5122047;28;19920;-61
2022/07/08 05:13:31;;;;;;;;;;;;;;;19.22;85.69;98921.97;5122490;28;19936;-61
2022/07/08 05:15:57;;;;;;;;;;;;;;;18.93;87.37;98931.38;5122934;28;19991;-61
2022/07/08 05:18:24;;;;;;;;;;;;;;;18.51;88.52;98926.78;5119867;28;19924;-61
2022/07/08 05:20:51;;;;;;;;;;;;;;;18.31;90.63;98928.63;5133394;27;19973;-61
2022/07/08 05:23:18;;;;;;;;;;;;;;;18.43;91.12;98932.81;5119781;28;19958;-62
2022/07/08 05:25:44;;;;;;;;;;;;;;;18.59;90.06;98942.38;5119722;28;19924;-61
2022/07/08 05:28:11;;;;;;;;;;;;;;;18.90;88.41;98943.59;5122540;28;19935;-62
2022/07/08 05:30:37;;;;;;;;;;;;;;;18.69;88.86;98931.44;5123252;28;19923;-61
2022/07/08 05:33:03;;;;;;;;;;;;;;;19.08;86.81;98936.56;5121892;28;19924;-61
2022/07/08 05:35:30;;;;;;;;;;;;;;;19.14;86.78;98941.63;5119635;28;19999;-62
2022/07/08 05:37:57;;;;;;;;;;;;;;;19.42;84.34;98941.75;5120578;28;19924;-62
2022/07/08 05:40:24;;;;;;;;;;;;;;;19.60;83.64;98940.91;5123447;28;19926;-62
2022/07/08 05:42:50;;;;;;;;;;;;;;;19.63;82.88;98953.88;5123387;28;19934;-61
2022/07/08 05:45:16;;;;;;;;;;;;;;;19.05;85.73;98953.41;5119846;28;19924;-62
2022/07/08 05:47:43;;;;;;;;;;;;;;;19.01;85.96;98955.88;5119702;28;19931;-62
2022/07/08 05:50:11;;;;;;;;;;;;;;;18.83;87.03;98959.38;5122953;27;19925;-62
2022/07/08 05:52:37;;;;;;;;;;;;;;;18.58;88.63;98962.41;5130852;27;19924;-62
2022/07/08 05:55:06;;;;;;;;;;;;;;;18.58;89.09;98965.91;5121257;28;19952;-61
2022/07/08 05:57:32;;;;;;;;;;;;;;;18.80;88.27;98968.09;5122874;28;19979;-62
2022/07/08 05:59:58;;;;;;;;;;;;;;;19.08;86.18;98967.16;5121911;28;19936;-61
2022/07/08 06:02:25;;;;;;;;;;;;;;;19.34;84.78;98968.38;5119086;28;19951;-62
2022/07/08 06:04:51;;;;;;;;;;;;;;;19.22;84.46;98973.44;5119285;28;19924;-62
2022/07/08 06:07:18;;;;;;;;;;;;;;;19.51;84.23;98973.31;5110457;28;19928;-62
2022/07/08 06:09:44;;;;;;;;;;;;;;;19.69;83.10;98971.66;5110484;28;19963;-61
2022/07/08 06:12:12;;;;;;;;;;;;;;;19.82;81.73;98969.00;5110648;28;19967;-62
2022/07/08 06:14:38;;;;;;;;;;;;;;;20.02;80.31;98972.47;5110570;28;19991;-62
2022/07/08 06:17:05;;;;;;;;;;;;;;;19.60;80.29;98968.03;5110647;28;19980;-62
2022/07/08 06:19:31;;;;;;;;;;;;;;;19.65;81.29;98966.03;5110400;28;19920;-62
2022/07/08 06:21:57;;;;;;;;;;;;;;;19.70;80.44;98984.13;5132595;27;19924;-62
2022/07/08 06:24:24;;;;;;;;;;;;;;;19.17;82.12;98981.66;5118487;28;19931;-62
2022/07/08 06:26:51;;;;;;;;;;;;;;;19.14;81.84;98984.94;5118731;28;20278;-61
2022/07/08 06:29:19;;;;;;;;;;;;;;;19.44;82.16;98982.91;5118749;28;19987;-60
2022/07/08 06:31:45;;;;;;;;;;;;;;;19.60;80.77;98989.69;5118790;28;19924;-62
2022/07/08 06:34:12;;;;;;;;;;;;;;;19.74;79.80;98990.56;5121578;28;19932;-62
2022/07/08 06:36:38;;;;;;;;;;;;;;;19.61;79.67;98983.19;5121906;28;19991;-61
2022/07/08 06:39:05;;;;;;;;;;;;;;;19.56;79.73;98994.13;5120252;28;19927;-61
2022/07/08 06:41:31;;;;;;;;;;;;;;;19.67;79.45;98999.06;5118413;28;19956;-62
2022/07/08 06:43:57;;;;;;;;;;;;;;;19.99;77.41;98998.28;5119062;28;19999;-62
2022/07/08 06:46:25;;;;;;;;;;;;;;;20.03;76.94;99018.25;5121751;28;19924;-62
2022/07/08 06:48:52;;;;;;;;;;;;;;;20.13;75.94;99007.22;5121825;28;19930;-62
2022/07/08 06:51:18;;;;;;;;;;;;;;;20.27;74.90;99008.09;5127456;27;19930;-62
2022/07/08 06:56:29;;;;;;;;;;;;;;;20.01;75.85;99017.75;5118244;28;20011;-62
2022/07/08 06:58:55;;;;;;;;;;;;;;;19.83;76.75;99015.91;5118690;28;19924;-62
2022/07/08 07:01:22;;;;;;;;;;;;;;;19.87;75.92;99011.47;5121825;28;19930;-62
2022/07/08 07:03:49;;;;;;;;;;;;;;;19.58;77.22;99017.09;5103413;28;19990;-61
2022/07/08 07:06:16;;;;;;;;;;;;;;;19.80;77.12;99017.31;5118162;28;19924;-62
2022/07/08 07:08:42;;;;;;;;;;;;;;;20.02;75.32;99026.69;5118006;28;19920;-61
2022/07/08 07:11:09;;;;;;;;;;;;;;;20.20;73.94;99033.97;5120462;28;19932;-61
2022/07/08 07:13:35;;;;;;;;;;;;;;;20.27;73.06;99027.06;5121507;28;19928;-62
2022/07/08 07:16:01;;;;;;;;;;;;;;;20.28;72.72;99025.97;5120225;28;19979;-62
2022/07/08 07:18:28;;;;;;;;;;;;;;;20.28;72.07;99019.75;5117821;28;19928;-62
2022/07/08 07:20:55;;;;;;;;;;;;;;;20.28;72.47;99020.56;5132029;27;19983;-61
2022/07/08 07:23:22;;;;;;;;;;;;;;;19.93;72.08;99026.56;5121480;28;20005;-62
2022/07/08 07:25:48;;;;;;;;;;;;;;;19.11;76.26;99028.03;5121575;28;19991;-61
2022/07/08 07:28:14;;;;;;;;;;;;;;;19.21;78.25;99023.31;5118156;28;19931;-62
2022/07/08 07:30:41;;;;;;;;;;;;;;;19.63;76.85;99017.00;5117783;28;19940;-63
2022/07/08 07:33:07;;;;;;;;;;;;;;;19.79;75.77;99021.09;5119954;28;19924;-62
2022/07/08 07:35:34;;;;;;;;;;;;;;;19.99;74.87;99019.97;5121654;28;20344;-61
2022/07/08 07:38:01;;;;;;;;;;;;;;;20.20;74.14;99023.13;5124132;28;19998;-62
2022/07/08 07:40:28;;;;;;;;;;;;;;;20.32;73.06;99018.88;5121844;28;19967;-61
2022/07/08 07:42:54;;;;;;;;;;;;;;;20.43;72.48;99028.41;5121940;28;19991;-62
2022/07/08 07:45:21;;;;;;;;;;;;;;;20.50;72.68;99021.78;5125154;28;19924;-62
2022/07/08 07:47:47;;;;;;;;;;;;;;;20.61;72.24;99034.06;5125224;28;19979;-62
2022/07/08 07:50:13;;;;;;;;;;;;;;;20.55;72.36;99024.41;5125158;27;19924;-62
2022/07/08 07:52:40;;;;;;;;;;;;;;;20.63;72.19;99021.81;5132000;27;19983;-62
2022/07/08 07:55:09;;;;;;;;;;;;;;;20.70;72.32;99013.25;5123636;28;19924;-62
2022/07/08 07:57:35;;;;;;;;;;;;;;;20.92;71.21;99024.22;5124939;28;19930;-61
2022/07/08 08:00:02;;;;;;;;;;;;;;;20.56;72.35;99026.81;5123832;28;19935;-61
2022/07/08 08:02:28;;;;;;;;;;;;;;;20.67;73.47;99017.38;5121390;28;19977;-62
2022/07/08 08:04:54;;;;;;;;;;;;;;;20.76;72.83;99031.84;5121565;28;19962;-61
2022/07/08 08:07:21;;;;;;;;;;;;;;;20.95;72.62;99032.53;5124635;28;20412;-62
2022/07/08 08:09:47;;;;;;;;;;;;;;;21.15;71.47;99028.63;5124867;28;19946;-62
2022/07/08 08:12:15;;;;;;;;;;;;;;;21.20;69.63;99027.72;5121671;28;19924;-62
2022/07/08 08:14:41;;;;;;;;;;;;;;;21.29;69.39;99028.59;5121308;28;19986;-61
2022/07/08 08:17:07;;;;;;;;;;;;;;;21.48;67.43;99021.09;5123082;28;19924;-61
2022/07/08 08:19:34;;;;;;;;;;;;;;;21.64;66.64;99024.25;5124277;28;19991;-62
2022/07/08 08:22:00;;;;;;;;;;;;;;;21.65;66.73;99015.81;5137349;27;19962;-62
2022/07/08 08:24:26;;;;;;;;;;;;;;;21.49;66.48;99022.69;5121012;28;20003;-62
2022/07/08 08:26:53;;;;;;;;;;;;;;;21.64;66.64;99032.41;5120946;28;19925;-63
2022/07/08 08:29:20;;;;;;;;;;;;;;;21.57;66.05;99021.94;5124454;28;19923;-62
2022/07/08 08:31:47;;;;;;;;;;;;;;;21.02;63.18;99030.22;5124269;28;19944;-62
2022/07/08 08:34:13;;;;;;;;;;;;;;;20.60;65.14;99033.25;5121690;28;19924;-61
2022/07/08 08:36:39;;;;;;;;;;;;;;;20.53;64.84;99038.28;5120790;28;19956;-61
2022/07/08 08:39:06;;;;;;;;;;;;;;;20.07;65.29;99035.56;5122724;28;19919;-62
2022/07/08 08:41:33;;;;;;;;;;;;;;;20.42;68.92;99045.00;5124380;28;19923;-64
2022/07/08 08:44:00;;;;;;;;;;;;;;;20.73;67.96;99039.81;5123329;28;19934;-61
2022/07/08 08:46:29;;;;;;;;;;;;;;;20.91;66.42;99033.47;5120172;28;20537;-62
2022/07/08 08:48:57;;;;;;;;;;;;;;;20.82;65.72;99040.72;5121051;28;19924;-61
2022/07/08 08:51:24;;;;;;;;;;;;;;;20.72;64.29;99058.00;5137872;27;20266;-61
2022/07/08 08:53:53;;;;;;;;;;;;;;;20.74;65.29;99038.66;5123891;28;19931;-62
2022/07/08 08:56:19;;;;;;;;;;;;;;;20.66;64.99;99037.47;5120535;28;19934;-62
2022/07/08 08:58:47;;;;;;;;;;;;;;;20.57;65.75;99044.72;5120229;28;19943;-61
2022/07/08 09:01:14;;;;;;;;;;;;;;;20.52;66.78;99036.66;5123117;28;19924;-61
2022/07/08 09:03:41;;;;;;;;;;;;;;;20.76;66.57;99040.00;5123611;28;19994;-62
2022/07/08 09:06:08;;;;;;;;;;;;;;;20.90;66.19;99048.13;5121373;28;19987;-62
2022/07/08 09:08:35;;;;;;;;;;;;;;;21.01;65.46;99042.19;5119851;28;19924;-62
2022/07/08 09:11:01;;;;;;;;;;;;;;;20.97;65.37;99046.63;5121383;28;19924;-62
2022/07/08 09:13:28;;;;;;;;;;;;;;;21.08;64.72;99043.69;5123479;28;19931;-62
2022/07/08 09:15:57;;;;;;;;;;;;;;;20.87;65.41;99054.16;5123171;28;19979;-62
2022/07/08 09:18:28;;;;;;;;;;;;;;;20.82;65.16;99046.13;5119875;28;20244;-62
2022/07/08 09:20:57;;;;;;;;;;;;;;;20.73;66.33;99061.53;5134084;27;19933;-61
2022/07/08 09:23:24;;;;;;;;;;;;;;;20.81;66.18;99056.19;5123334;28;19924;-62
2022/07/08 09:25:51;;;;;;;;;;;;;;;20.91;65.74;99055.19;5123569;28;19923;-62
2022/07/08 09:28:28;;;;;;;;;;;;;;;20.93;65.55;99050.25;5119836;28;19988;-62
2022/07/08 09:30:55;;;;;;;;;;;;;;;20.80;65.95;99053.75;5120005;28;19955;-61
2022/07/08 09:33:21;;;;;;;;;;;;;;;20.99;65.64;99051.75;5123416;28;19924;-62
2022/07/08 09:35:50;;;;;;;;;;;;;;;21.07;65.08;99050.25;5123129;28;19931;-62
2022/07/08 09:38:18;;;;;;;;;;;;;;;21.07;64.95;99058.38;5119770;28;19951;-62
2022/07/08 09:40:54;;;;;;;;;;;;;;;20.96;64.82;99060.50;5119514;28;19962;-62
2022/07/08 09:43:21;;;;;;;;;;;;;;;21.11;64.21;99064.84;5119624;28;19928;-62
2022/07/08 09:45:47;;;;;;;;;;;;;;;20.97;64.45;99057.50;5119638;28;19932;-62
2022/07/08 09:48:14;;;;;;;;;;;;;;;20.98;65.15;99066.44;5122593;28;20696;-62
2022/07/08 09:50:41;;;;;;;;;;;;;;;21.10;64.74;99068.69;5128133;27;19928;-63
2022/07/08 09:53:14;;;;;;;;;;;;;;;21.24;64.31;99069.44;5124546;27;19924;-63
2022/07/08 09:55:43;;;;;;;;;;;;;;;21.13;64.24;99071.59;5122787;28;19923;-63
2022/07/08 09:58:12;;;;;;;;;;;;;;;20.83;64.66;99074.88;5119851;28;19929;-62
2022/07/08 10:00:39;;;;;;;;;;;;;;;21.09;64.72;99067.88;5118897;28;19924;-62
2022/07/08 10:03:05;;;;;;;;;;;;;;;20.96;64.70;99066.75;5120628;28;19924;-63
2022/07/08 10:05:32;;;;;;;;;;;;;;;20.99;64.18;99068.03;5122148;28;20017;-62
2022/07/08 10:07:58;;;;;;;;;;;;;;;20.54;64.31;99072.47;5121489;28;19955;-62
2022/07/08 10:10:25;;;;;;;;;;;;;;;20.56;64.51;99070.25;5118776;28;19925;-62
2022/07/08 10:12:54;;;;;;;;;;;;;;;20.61;65.43;99064.69;5118778;28;19947;-62
2022/07/08 10:15:21;;;;;;;;;;;;;;;20.70;65.06;99072.97;5110332;28;19928;-62
2022/07/08 10:17:49;;;;;;;;;;;;;;;20.88;64.92;99072.06;5110137;28;19935;-61
2022/07/08 10:20:16;;;;;;;;;;;;;;;20.87;64.35;99082.13;5113494;27;19949;-62
2022/07/08 10:22:45;;;;;;;;;;;;;;;20.81;64.93;99075.19;5128312;27;19928;-62
2022/07/08 10:25:11;;;;;;;;;;;;;;;20.79;64.71;99071.19;5121186;28;19924;-63
2022/07/08 10:27:39;;;;;;;;;;;;;;;20.61;65.78;99070.13;5122098;28;19935;-62
2022/07/08 10:30:16;;;;;;;;;;;;;;;20.35;65.30;99072.53;5120438;28;19924;-63
2022/07/08 10:32:45;;;;;;;;;;;;;;;20.32;66.81;99073.13;5100475;28;19932;-62
2022/07/08 10:35:13;;;;;;;;;;;;;;;20.47;65.80;99080.19;5121058;28;19924;-62
2022/07/08 10:37:47;;;;;;;;;;;;;;;20.08;65.86;99066.19;5121977;28;19993;-61
2022/07/08 10:40:13;;;;;;;;;;;;;;;19.97;67.02;99078.28;5119588;28;19940;-61
2022/07/08 10:42:43;;;;;;;;;;;;;;;19.91;67.91;99080.28;5118447;28;19924;-61
2022/07/08 10:45:15;;;;;;;;;;;;;;;19.80;69.98;99082.38;5120770;28;19931;-61
2022/07/08 10:47:43;;;;;;;;;;;;;;;20.17;69.28;99081.50;5121842;28;20219;-61
2022/07/08 10:50:09;;;;;;;;;;;;;;;20.43;68.44;99079.97;5121129;27;19952;-62
2022/07/08 10:52:39;;;;;;;;;;;;;;;20.48;68.07;99087.22;5130037;27;19970;-62
2022/07/08 10:55:12;;;;;;;;;;;;;;;20.60;67.02;99089.44;5120289;28;19928;-62
2022/07/08 10:57:39;;;;;;;;;;;;;;;20.62;66.53;99088.03;5121961;28;19982;-62
2022/07/08 11:00:06;;;;;;;;;;;;;;;20.38;66.28;99071.94;5120155;28;19967;-62
2022/07/08 11:02:33;;;;;;;;;;;;;;;20.41;66.72;99079.47;5118167;28;19928;-61
2022/07/08 11:05:01;;;;;;;;;;;;;;;20.67;66.46;99081.72;5119127;28;19924;-62
2022/07/08 11:07:28;;;;;;;;;;;;;;;20.85;66.22;99078.13;5121539;28;19924;-62
2022/07/08 11:09:57;;;;;;;;;;;;;;;20.83;65.76;99086.53;5122266;28;19995;-61
2022/07/08 11:12:25;;;;;;;;;;;;;;;20.46;66.79;99084.00;5122574;28;19924;-62
2022/07/08 11:14:52;;;;;;;;;;;;;;;20.57;67.19;99085.44;5122483;28;19935;-62
2022/07/08 11:17:19;;;;;;;;;;;;;;;20.70;66.88;99079.22;5113829;28;19924;-62
2022/07/08 11:19:46;;;;;;;;;;;;;;;20.66;67.05;99085.53;5113665;28;19959;-62
2022/07/08 11:22:14;;;;;;;;;;;;;;;20.95;66.46;99089.56;5136331;27;19955;-62
2022/07/08 11:24:42;;;;;;;;;;;;;;;21.06;65.98;99082.03;5122299;28;19928;-61
2022/07/08 11:27:09;;;;;;;;;;;;;;;21.10;65.72;99072.22;5124603;28;19946;-62
2022/07/08 11:29:35;;;;;;;;;;;;;;;21.11;65.55;99078.41;5125524;28;19923;-62
2022/07/08 11:32:02;;;;;;;;;;;;;;;21.31;65.05;99072.56;5124307;28;19924;-62
2022/07/08 11:34:29;;;;;;;;;;;;;;;21.35;65.02;99070.88;5121842;28;20061;-63
2022/07/08 11:36:55;;;;;;;;;;;;;;;21.41;64.22;99067.72;5122459;28;19970;-62
2022/07/08 11:39:23;;;;;;;;;;;;;;;21.41;63.87;99067.72;5124931;28;19923;-62
2022/07/08 11:41:49;;;;;;;;;;;;;;;21.40;63.52;99066.13;5125099;28;19991;-61
2022/07/08 11:44:18;;;;;;;;;;;;;;;21.48;64.08;99070.81;5122129;28;19936;-61
2022/07/08 11:46:45;;;;;;;;;;;;;;;21.58;63.80;99072.50;5103925;28;19987;-62
2022/07/08 11:49:12;;;;;;;;;;;;;;;21.63;63.64;99068.88;5124899;28;19964;-62
2022/07/08 11:51:38;;;;;;;;;;;;;;;21.64;63.67;99073.19;5139659;27;19924;-61
2022/07/08 11:54:05;;;;;;;;;;;;;;;21.62;63.43;99081.66;5123869;28;19977;-61
2022/07/08 11:56:33;;;;;;;;;;;;;;;21.55;61.91;99075.84;5121847;28;19988;-62
2022/07/08 11:58:59;;;;;;;;;;;;;;;21.48;63.05;99084.41;5122513;28;19920;-62
2022/07/08 12:01:26;;;;;;;;;;;;;;;21.49;61.86;99077.06;5125187;28;19962;-62
2022/07/08 12:03:52;;;;;;;;;;;;;;;21.41;62.78;99084.03;5125066;28;19974;-63
2022/07/08 12:06:22;;;;;;;;;;;;;;;21.14;62.51;99069.66;5112755;28;19944;-62
2022/07/08 12:08:49;;;;;;;;;;;;;;;21.12;63.41;99067.25;5113457;28;20027;-62
2022/07/08 12:11:17;;;;;;;;;;;;;;;21.29;63.87;99075.56;5113206;28;19931;-61
2022/07/08 12:13:45;;;;;;;;;;;;;;;21.44;63.67;99074.47;5113245;28;19924;-62
2022/07/08 12:16:26;;;;;;;;;;;;;;;21.53;63.71;99076.16;5113008;28;19936;-62
2022/07/08 12:18:52;;;;;;;;;;;;;;;21.64;62.35;99062.31;5113329;28;20007;-62
2022/07/08 12:21:19;;;;;;;;;;;;;;;21.42;62.48;99073.94;5130467;27;19924;-62
2022/07/08 12:23:46;;;;;;;;;;;;;;;21.45;63.33;99076.88;5124943;28;19962;-62
2022/07/08 12:26:13;;;;;;;;;;;;;;;21.59;63.12;99067.88;5122250;28;20018;-61
2022/07/08 12:28:39;;;;;;;;;;;;;;;21.68;62.83;99060.59;5121209;28;19978;-62
2022/07/08 12:31:07;;;;;;;;;;;;;;;21.65;62.63;99053.06;5123140;28;19960;-62
2022/07/08 12:33:33;;;;;;;;;;;;;;;21.65;62.79;99053.06;5124834;28;19983;-61
2022/07/08 12:36:01;;;;;;;;;;;;;;;21.71;62.46;99058.06;5123774;28;19943;-61
2022/07/08 12:38:27;;;;;;;;;;;;;;;21.44;63.88;99069.84;5120917;28;19924;-62
2022/07/08 12:40:54;;;;;;;;;;;;;;;21.51;64.02;99072.91;5121319;28;20081;-61
2022/07/08 12:43:20;;;;;;;;;;;;;;;21.46;65.08;99062.16;5124906;28;19924;-62
2022/07/08 12:45:47;;;;;;;;;;;;;;;21.43;65.94;99056.53;5124693;28;19994;-62
2022/07/08 12:48:14;;;;;;;;;;;;;;;21.38;67.01;99064.81;5121931;28;19935;-61